createdAt,value
2022-09-28T03:54:39.179Z,81.34
2022-09-28T03:57:41.625Z,84.78
2022-09-28T04:00:43.727Z,85.87
2022-09-28T04:03:47.811Z,77.31
2022-09-28T04:06:49.967Z,83.27
2022-09-28T04:09:52.435Z,84.81
2022-09-28T04:12:56.028Z,86.41
2022-09-28T04:16:00.568Z,89.21
2022-09-28T04:19:04.180Z,88.75
2022-09-28T04:22:06.522Z,89.04
2022-09-28T04:25:09.851Z,90.65
2022-09-28T04:28:31.770Z,89.69
2022-09-28T04:31:54.318Z,92.10
2022-09-28T04:34:57.895Z,92.66
2022-09-28T04:38:00.134Z,93.38
2022-09-28T04:41:02.909Z,94.88
2022-09-28T04:44:05.229Z,95.37
2022-09-28T04:47:07.553Z,93.72
2022-09-28T04:50:10.337Z,94.36
2022-09-28T04:53:35.106Z,94.15
2022-09-28T04:56:37.242Z,92.64
2022-09-28T04:59:39.657Z,94.01
2022-09-28T05:02:41.729Z,93.36
2022-09-28T05:05:45.549Z,95.13
2022-09-28T05:08:50.156Z,96.18
2022-09-28T05:11:53.019Z,95.61
2022-09-28T05:14:56.541Z,96.93
2022-09-28T05:17:58.867Z,94.93
2022-09-28T05:21:01.693Z,97.70
2022-09-28T05:24:07.351Z,98.17
2022-09-28T05:27:09.637Z,98.43
2022-09-28T05:30:12.226Z,98.45
2022-09-28T05:33:17.602Z,98.47
2022-09-28T05:36:20.186Z,97.32
2022-09-28T05:39:22.327Z,95.63
2022-09-28T05:42:24.608Z,96.57
2022-09-28T05:45:26.795Z,97.29
2022-09-28T05:48:29.665Z,94.32
2022-09-28T05:51:31.802Z,89.60
2022-09-28T05:54:34.142Z,93.59
2022-09-28T05:57:36.412Z,91.38
2022-09-28T06:00:39.336Z,90.89
2022-09-28T06:03:42.079Z,91.79
2022-09-28T06:06:44.165Z,92.10
2022-09-28T06:09:46.861Z,87.48
2022-09-28T06:12:53.269Z,86.66
2022-09-28T06:15:55.718Z,85.41
2022-09-28T06:18:57.901Z,89.52
2022-09-28T06:22:00.899Z,88.67
2022-09-28T06:25:04.349Z,91.89
2022-09-28T06:28:10.714Z,90.27
2022-09-28T06:31:13.103Z,85.87
2022-09-28T06:34:16.158Z,84.48
2022-09-28T06:37:19.343Z,87.69
2022-09-28T06:40:23.130Z,87.71
2022-09-28T06:43:25.658Z,88.39
2022-09-28T06:46:39.157Z,88.75
2022-09-28T06:49:42.217Z,81.85
2022-09-28T06:52:45.281Z,83.38
2022-09-28T06:55:50.337Z,80.47
2022-09-28T06:58:52.782Z,77.76
2022-09-28T07:01:54.914Z,80.31
2022-09-28T07:04:57.383Z,81.40
2022-09-28T07:08:01.924Z,81.71
2022-09-28T07:11:07.939Z,81.03
2022-09-28T07:14:22.482Z,78.32
2022-09-28T07:17:33.006Z,80.66
2022-09-28T07:20:49.233Z,80.20
2022-09-28T07:23:54.678Z,80.46
2022-09-28T07:26:58.558Z,80.46
2022-09-28T07:30:01.289Z,82.94
2022-09-28T07:33:07.040Z,81.46
2022-09-28T07:36:10.666Z,78.76
2022-09-28T07:39:12.845Z,78.95
2022-09-28T07:42:15.506Z,75.20
2022-09-28T07:45:25.920Z,74.24
2022-09-28T07:48:28.477Z,73.50
2022-09-28T07:51:32.291Z,74.66
2022-09-28T07:54:36.227Z,75.12
2022-09-28T07:57:49.795Z,76.28
2022-09-28T08:00:56.268Z,73.23
2022-09-28T08:03:59.876Z,71.25
2022-09-28T08:07:03.030Z,70.89
2022-09-28T08:10:07.211Z,71.05
2022-09-28T08:13:10.543Z,74.32
2022-09-28T08:16:13.734Z,71.00
2022-09-28T08:19:15.995Z,71.50
2022-09-28T08:22:19.865Z,75.95
2022-09-28T08:25:25.332Z,73.40
2022-09-28T08:28:27.979Z,69.61
2022-09-28T08:31:31.097Z,69.79
2022-09-28T08:34:41.210Z,73.15
2022-09-28T08:37:54.626Z,73.02
2022-09-28T08:41:23.412Z,71.47
2022-09-28T08:44:31.922Z,71.70
2022-09-28T08:48:20.985Z,70.20
2022-09-28T08:51:35.805Z,69.24
2022-09-28T08:55:02.491Z,67.48
2022-09-28T08:58:17.290Z,68.43
2022-09-28T09:01:21.259Z,67.14
2022-09-28T09:04:23.377Z,68.76
2022-09-28T09:07:49.543Z,69.17
2022-09-28T09:11:04.240Z,69.35
2022-09-28T09:14:32.834Z,68.47
2022-09-28T09:18:05.103Z,66.52
2022-09-28T09:21:15.487Z,67.00
2022-09-28T09:24:35.668Z,68.35
2022-09-28T09:27:57.592Z,67.23
2022-09-28T09:31:26.574Z,67.73
2022-09-28T09:34:43.274Z,68.18
2022-09-28T09:38:28.500Z,66.51
2022-09-28T09:42:07.770Z,68.75
2022-09-28T09:45:46.002Z,67.04
2022-09-28T09:49:03.480Z,62.83
2022-09-28T09:52:21.923Z,63.47
2022-09-28T09:55:38.596Z,63.69
2022-09-28T09:58:50.906Z,63.89
2022-09-28T10:01:55.836Z,63.28
2022-09-28T10:05:10.590Z,66.22
2022-09-28T10:08:17.839Z,65.46
2022-09-28T10:11:27.070Z,66.65
2022-09-28T10:14:30.979Z,67.30
2022-09-28T10:17:37.118Z,68.93
2022-09-28T10:20:50.670Z,67.35
2022-09-28T10:23:59.248Z,67.85
2022-09-28T10:27:18.379Z,66.84
2022-09-28T10:30:23.867Z,64.14
2022-09-28T10:33:33.770Z,64.11
2022-09-28T10:36:51.890Z,66.40
2022-09-28T10:39:55.889Z,66.95
2022-09-28T10:43:36.748Z,66.17
2022-09-28T10:46:41.336Z,65.57
2022-09-28T10:49:48.424Z,63.61
2022-09-28T10:52:50.712Z,65.91
2022-09-28T10:56:04.636Z,65.99
2022-09-28T10:59:33.419Z,68.06
2022-09-28T11:02:40.163Z,66.82
2022-09-28T11:05:54.079Z,65.82
2022-09-28T11:09:03.922Z,64.93
2022-09-28T11:12:14.969Z,66.30
2022-09-28T11:15:21.201Z,65.91
2022-09-28T11:18:32.265Z,66.27
2022-09-28T11:21:43.129Z,64.20
2022-09-28T11:24:45.802Z,63.12
2022-09-28T11:27:51.521Z,63.29
2022-09-28T11:30:54.512Z,63.24
2022-09-28T11:34:31.069Z,65.72
2022-09-28T11:37:55.890Z,63.28
2022-09-28T11:41:21.135Z,63.60
2022-09-28T11:44:37.361Z,61.71
2022-09-28T11:47:55.813Z,60.96
2022-09-28T11:51:12.187Z,62.64
2022-09-28T11:54:47.358Z,61.92
2022-09-28T11:58:12.939Z,61.24
2022-09-28T12:01:35.632Z,59.51
2022-09-28T12:04:44.275Z,61.42
2022-09-28T12:07:59.061Z,62.31
2022-09-28T12:11:15.651Z,62.28
2022-09-28T12:14:29.887Z,61.77
2022-09-28T12:17:54.444Z,61.31
2022-09-28T12:21:38.506Z,61.79
2022-09-28T12:24:45.505Z,59.71
2022-09-28T12:27:53.527Z,63.44
2022-09-28T12:31:02.234Z,60.68
2022-09-28T12:34:04.999Z,60.64
2022-09-28T12:37:40.387Z,60.94
2022-09-28T12:41:02.579Z,61.85
2022-09-28T12:44:47.146Z,61.07
2022-09-28T12:47:59.190Z,61.57
2022-09-28T12:51:18.418Z,60.21
2022-09-28T12:54:26.382Z,61.12
2022-09-28T12:57:58.170Z,60.91
2022-09-28T13:01:29.974Z,61.54
2022-09-28T13:04:55.658Z,61.89
2022-09-28T13:08:19.501Z,63.17
2022-09-28T13:11:46.860Z,61.30
2022-09-28T13:15:03.780Z,60.98
2022-09-28T13:18:44.475Z,57.73
2022-09-28T13:22:14.709Z,57.66
2022-09-28T13:25:20.688Z,58.25
2022-09-28T13:28:27.309Z,58.22
2022-09-28T13:31:34.935Z,56.55
2022-09-28T13:34:39.587Z,58.11
2022-09-28T13:37:41.908Z,58.89
2022-09-28T13:41:06.637Z,55.81
2022-09-28T13:44:36.870Z,57.36
2022-09-28T13:47:51.620Z,57.95
2022-09-28T13:51:12.340Z,57.50
2022-09-28T13:54:30.802Z,56.64
2022-09-28T13:57:36.073Z,57.39
2022-09-28T14:00:47.014Z,58.25
2022-09-28T14:04:18.928Z,56.95
2022-09-28T14:07:45.598Z,55.43
2022-09-28T14:10:51.709Z,57.00
2022-09-28T14:14:11.708Z,56.74
2022-09-28T14:17:27.270Z,56.15
2022-09-28T14:20:31.326Z,55.97
2022-09-28T14:24:02.230Z,55.50
2022-09-28T14:27:23.033Z,54.54
2022-09-28T14:30:35.311Z,55.40
2022-09-28T14:33:39.258Z,55.29
2022-09-28T14:37:06.577Z,55.55
2022-09-28T14:40:35.536Z,56.19
2022-09-28T14:43:43.591Z,56.03
2022-09-28T14:46:47.342Z,55.41
2022-09-28T14:50:00.582Z,57.86
2022-09-28T14:53:23.842Z,57.83
2022-09-28T14:56:32.615Z,58.48
2022-09-28T14:59:42.807Z,58.21
2022-09-28T15:02:51.793Z,58.82
2022-09-28T15:05:54.304Z,59.09
2022-09-28T15:08:56.697Z,59.04
2022-09-28T15:11:59.949Z,59.11
2022-09-28T15:15:05.474Z,59.98
2022-09-28T15:18:43.751Z,60.56
2022-09-28T15:21:48.537Z,60.78
2022-09-28T15:25:01.370Z,61.40
2022-09-28T15:28:19.284Z,61.83
2022-09-28T15:31:24.267Z,64.38
